createdAt,value
2017-12-11T00:00:49.964Z,96853.11
2017-12-11T00:03:17.465Z,96868.82
2017-12-11T00:05:44.979Z,96870.00
2017-12-11T00:08:12.476Z,96881.25
2017-12-11T00:10:39.964Z,96870.58
2017-12-11T00:13:07.467Z,96880.08
2017-12-11T00:15:34.949Z,96882.36
2017-12-11T00:18:04.909Z,96884.72
2017-12-11T00:20:32.403Z,96879.84
2017-12-11T00:22:59.902Z,96881.92
2017-12-11T00:25:27.408Z,96899.59
2017-12-11T00:27:54.928Z,96891.70
2017-12-11T00:30:22.408Z,96895.05
2017-12-11T00:32:49.906Z,96911.59
2017-12-11T00:35:17.407Z,96903.62
2017-12-11T00:37:44.924Z,96925.17
2017-12-11T00:40:12.419Z,96913.75
2017-12-11T00:42:39.942Z,96926.12
2017-12-11T00:45:07.702Z,96928.47
2017-12-11T00:47:35.438Z,96939.30
2017-12-11T00:50:02.937Z,96933.70
2017-12-11T00:52:30.412Z,96915.95
2017-12-11T00:54:57.909Z,96934.56
2017-12-11T00:57:25.410Z,96950.84
2017-12-11T00:59:52.891Z,96959.34
2017-12-11T01:02:20.381Z,96966.56
2017-12-11T01:04:47.863Z,96979.92
2017-12-11T01:07:15.359Z,96987.40
2017-12-11T01:09:42.855Z,96992.42
2017-12-11T01:12:10.356Z,96990.86
2017-12-11T01:14:37.833Z,97002.09
2017-12-11T01:17:05.321Z,97001.81
2017-12-11T01:19:32.824Z,97021.52
2017-12-11T01:22:00.312Z,97012.17
2017-12-11T01:24:27.925Z,97034.04
2017-12-11T01:26:55.502Z,97038.13
2017-12-11T01:29:22.992Z,97048.42
2017-12-11T01:31:50.616Z,97062.55
2017-12-11T01:34:19.021Z,97064.38
2017-12-11T01:36:46.522Z,97063.81
2017-12-11T01:39:13.996Z,97088.08
2017-12-11T01:41:41.518Z,97087.56
2017-12-11T01:44:09.043Z,97098.11
2017-12-11T01:46:36.521Z,97111.52
2017-12-11T01:49:04.043Z,97116.39
2017-12-11T01:51:31.534Z,97129.40
2017-12-11T01:53:59.006Z,97153.69
2017-12-11T01:56:26.480Z,97152.06
2017-12-11T01:58:53.954Z,97158.08
2017-12-11T02:01:21.435Z,97173.97
2017-12-11T02:03:48.921Z,97178.14
2017-12-11T02:06:16.400Z,97182.22
2017-12-11T02:08:43.901Z,97187.77
2017-12-11T02:11:11.386Z,97192.60
2017-12-11T02:13:38.874Z,97198.33
2017-12-11T02:16:06.428Z,97199.95
2017-12-11T02:18:33.917Z,97213.52
2017-12-11T02:21:01.422Z,97220.75
2017-12-11T02:23:28.912Z,97227.30
2017-12-11T02:25:56.381Z,97236.20
2017-12-11T02:28:23.878Z,97239.38
2017-12-11T02:30:51.360Z,97249.80
2017-12-11T02:33:18.858Z,97264.29
2017-12-11T02:35:46.343Z,97265.19
2017-12-11T02:38:13.821Z,97268.36
2017-12-11T02:40:41.336Z,97276.95
2017-12-11T02:43:08.808Z,97278.33
2017-12-11T02:45:36.301Z,97281.98
2017-12-11T02:48:03.774Z,97291.38
2017-12-11T02:50:31.264Z,97291.52
2017-12-11T02:52:58.733Z,97297.84
2017-12-11T02:55:26.216Z,97296.91
2017-12-11T02:57:53.719Z,97293.27
2017-12-11T03:00:21.232Z,97307.26
2017-12-11T03:02:48.717Z,97296.11
2017-12-11T03:05:16.296Z,97307.48
2017-12-11T03:07:43.774Z,97302.26
2017-12-11T03:10:11.265Z,97315.03
2017-12-11T03:12:38.737Z,97312.73
2017-12-11T03:15:06.250Z,97305.16
2017-12-11T03:17:33.731Z,97312.05
2017-12-11T03:20:01.213Z,97323.41
2017-12-11T03:22:28.714Z,97311.91
2017-12-11T03:24:56.222Z,97318.23
2017-12-11T03:27:23.712Z,97331.22
2017-12-11T03:29:51.294Z,97350.06
2017-12-11T03:32:18.792Z,97354.03
2017-12-11T03:34:46.287Z,97359.62
2017-12-11T03:37:13.827Z,97366.55
2017-12-11T03:39:41.366Z,97380.20
2017-12-11T03:42:08.898Z,97382.27
2017-12-11T03:44:36.388Z,97400.44
2017-12-11T03:47:03.936Z,97401.20
2017-12-11T03:49:31.429Z,97412.69
2017-12-11T03:51:58.941Z,97427.91
2017-12-11T03:54:26.420Z,97438.83
2017-12-11T03:56:53.906Z,97451.82
2017-12-11T03:59:21.396Z,97453.77
2017-12-11T04:01:48.888Z,97462.81
2017-12-11T04:04:16.399Z,97476.78
2017-12-11T04:06:43.913Z,97497.38
2017-12-11T04:09:11.409Z,97496.61
2017-12-11T04:11:39.121Z,97513.13
2017-12-11T04:14:06.600Z,97520.59
2017-12-11T04:16:34.094Z,97534.88
2017-12-11T04:19:01.607Z,97550.89
2017-12-11T04:21:29.102Z,97553.13
2017-12-11T04:23:56.612Z,97571.12
2017-12-11T04:26:24.111Z,97575.16
2017-12-11T04:28:51.616Z,97590.37
2017-12-11T04:31:19.119Z,97602.34
2017-12-11T04:33:46.664Z,97599.69
2017-12-11T04:36:14.191Z,97610.90
2017-12-11T04:38:41.690Z,97606.67
2017-12-11T04:41:09.207Z,97627.80
2017-12-11T04:43:36.713Z,97628.93
2017-12-11T04:46:04.205Z,97625.22
2017-12-11T04:48:31.693Z,97625.19
2017-12-11T04:50:59.187Z,97617.08
2017-12-11T04:53:26.705Z,97614.34
2017-12-11T04:55:54.208Z,97617.14
2017-12-11T04:58:21.743Z,97611.48
2017-12-11T05:00:49.284Z,97599.70
2017-12-11T05:03:16.841Z,97595.98
2017-12-11T05:05:44.337Z,97588.83
2017-12-11T05:08:11.840Z,97599.32
2017-12-11T05:10:39.344Z,97607.09
2017-12-11T05:13:06.833Z,97613.70
2017-12-11T05:15:34.500Z,97615.91
2017-12-11T05:18:02.020Z,97628.11
2017-12-11T05:20:29.520Z,97632.17
2017-12-11T05:22:57.036Z,97637.41
2017-12-11T05:25:24.517Z,97634.10
2017-12-11T05:27:52.174Z,97635.05
2017-12-11T05:30:19.676Z,97641.19
2017-12-11T05:32:47.168Z,97632.37
2017-12-11T05:35:14.693Z,97630.16
2017-12-11T05:37:42.176Z,97634.52
2017-12-11T05:40:09.688Z,97639.59
2017-12-11T05:42:37.194Z,97642.37
2017-12-11T05:45:04.710Z,97659.38
2017-12-11T05:47:32.189Z,97664.07
2017-12-11T05:49:59.686Z,97678.53
2017-12-11T05:52:27.208Z,97661.27
2017-12-11T05:54:54.692Z,97673.66
2017-12-11T05:57:22.259Z,97691.11
2017-12-11T05:59:49.803Z,97698.35
2017-12-11T06:02:17.321Z,97713.51
2017-12-11T06:04:44.813Z,97720.93
2017-12-11T06:07:12.340Z,97731.36
2017-12-11T06:09:39.869Z,97744.87
2017-12-11T06:12:07.376Z,97750.75
2017-12-11T06:14:34.855Z,97747.19
2017-12-11T06:17:02.415Z,97739.95
2017-12-11T06:19:29.904Z,97724.95
2017-12-11T06:21:57.392Z,97730.39
2017-12-11T06:24:24.903Z,97734.41
2017-12-11T06:26:52.401Z,97709.77
2017-12-11T06:29:19.927Z,97697.38
2017-12-11T06:31:47.452Z,97710.68
2017-12-11T06:34:14.933Z,97715.72
2017-12-11T06:36:42.413Z,97727.38
2017-12-11T06:39:09.896Z,97727.32
2017-12-11T06:41:37.714Z,97733.94
2017-12-11T06:44:05.197Z,97744.16
2017-12-11T06:46:32.704Z,97757.11
2017-12-11T06:49:00.425Z,97759.52
2017-12-11T06:51:27.939Z,97747.36
2017-12-11T06:53:55.437Z,97745.83
2017-12-11T06:56:22.936Z,97753.66
2017-12-11T06:58:50.471Z,97759.56
2017-12-11T07:01:17.981Z,97766.13
2017-12-11T07:03:45.461Z,97757.78
2017-12-11T07:06:12.965Z,97749.82
2017-12-11T07:08:40.481Z,97753.66
2017-12-11T07:11:08.155Z,97747.36
2017-12-11T07:13:35.690Z,97744.02
2017-12-11T07:16:03.184Z,97750.25
2017-12-11T07:18:30.706Z,97752.84
2017-12-11T07:20:58.231Z,97752.39
2017-12-11T07:23:25.709Z,97753.59
2017-12-11T07:28:35.047Z,97755.27
2017-12-11T07:31:02.557Z,97744.89
2017-12-11T07:33:30.068Z,97754.17
2017-12-11T07:35:57.571Z,97754.00
2017-12-11T07:38:25.090Z,97765.23
2017-12-11T07:40:52.584Z,97773.70
2017-12-11T07:43:20.110Z,97786.67
2017-12-11T07:45:47.913Z,97789.98
2017-12-11T07:48:15.419Z,97792.13
2017-12-11T07:50:42.947Z,97779.36
2017-12-11T07:53:10.419Z,97779.64
2017-12-11T07:55:37.924Z,97795.44
2017-12-11T07:58:05.416Z,97805.25
2017-12-11T08:00:32.941Z,97802.91
2017-12-11T08:03:00.444Z,97807.45
2017-12-11T08:05:27.995Z,97799.95
2017-12-11T08:07:55.621Z,97802.55
2017-12-11T08:10:23.113Z,97819.64
2017-12-11T08:12:50.613Z,97822.22
2017-12-11T08:15:18.131Z,97827.53
2017-12-11T08:17:46.651Z,97822.52
2017-12-11T08:20:14.185Z,97806.22
2017-12-11T08:22:41.674Z,97787.09
2017-12-11T08:25:09.172Z,97797.55
2017-12-11T08:27:36.656Z,97801.30
2017-12-11T08:30:04.155Z,97814.14
2017-12-11T08:32:31.663Z,97819.15
2017-12-11T08:34:59.164Z,97817.72
2017-12-11T08:37:26.693Z,97796.35
2017-12-11T08:39:54.169Z,97782.00
2017-12-11T08:42:21.663Z,97773.59
2017-12-11T08:44:49.169Z,97775.98
2017-12-11T08:47:16.683Z,97763.88
2017-12-11T08:49:44.191Z,97772.61
2017-12-11T08:52:11.681Z,97775.66
2017-12-11T08:54:39.216Z,97777.39
2017-12-11T08:57:06.731Z,97776.92
2017-12-11T08:59:34.235Z,97778.16
2017-12-11T09:02:01.709Z,97768.92
2017-12-11T09:04:29.192Z,97772.55
2017-12-11T09:06:56.695Z,97777.48
2017-12-11T09:09:24.216Z,97791.93
2017-12-11T09:11:51.727Z,97809.08
2017-12-11T09:14:19.213Z,97803.09
2017-12-11T09:16:46.723Z,97808.02
2017-12-11T09:19:14.231Z,97795.50
2017-12-11T09:21:41.735Z,97803.53
2017-12-11T09:24:09.224Z,97799.66
2017-12-11T09:26:36.705Z,97797.50
2017-12-11T09:29:04.208Z,97808.05
2017-12-11T09:31:31.703Z,97799.16
2017-12-11T09:33:59.201Z,97797.87
2017-12-11T09:36:26.688Z,97793.66
2017-12-11T09:38:54.192Z,97796.27
2017-12-11T09:41:21.683Z,97796.23
2017-12-11T09:43:49.321Z,97794.41
2017-12-11T09:46:16.769Z,97783.95
2017-12-11T09:48:44.257Z,97787.50
2017-12-11T09:51:11.749Z,97778.51
2017-12-11T09:53:39.246Z,97780.94
2017-12-11T09:56:06.748Z,97780.84
2017-12-11T09:58:34.259Z,97774.28
2017-12-11T10:01:01.764Z,97775.80
2017-12-11T10:03:29.280Z,97779.86
2017-12-11T10:05:56.769Z,97786.39
2017-12-11T10:08:24.265Z,97780.47
2017-12-11T10:10:51.777Z,97785.19
2017-12-11T10:13:19.350Z,97769.03
2017-12-11T10:15:46.867Z,97764.38
2017-12-11T10:18:14.384Z,97769.47
2017-12-11T10:20:41.891Z,97774.34
2017-12-11T10:23:09.404Z,97785.09
2017-12-11T10:25:36.898Z,97793.60
2017-12-11T10:28:04.391Z,97793.39
2017-12-11T10:30:31.893Z,97787.53
2017-12-11T10:32:59.407Z,97776.95
2017-12-11T10:35:26.924Z,97769.30
2017-12-11T10:37:54.432Z,97776.60
2017-12-11T10:40:23.192Z,97763.70
2017-12-11T10:42:50.879Z,97773.88
2017-12-11T10:45:18.532Z,97774.52
2017-12-11T10:47:46.224Z,97783.92
2017-12-11T10:50:13.744Z,97773.45
2017-12-11T10:52:41.234Z,97757.63
2017-12-11T10:55:08.775Z,97761.77
2017-12-11T10:57:36.282Z,97748.36
2017-12-11T11:00:03.789Z,97752.52
2017-12-11T11:02:31.410Z,97733.59
2017-12-11T11:04:58.895Z,97725.86
2017-12-11T11:07:26.416Z,97707.87
2017-12-11T11:09:53.900Z,97706.11
2017-12-11T11:12:21.403Z,97717.64
2017-12-11T11:14:49.231Z,97707.55
2017-12-11T11:17:16.738Z,97704.72
2017-12-11T11:19:44.252Z,97702.38
2017-12-11T11:22:11.749Z,97693.63
2017-12-11T11:24:39.273Z,97694.33
2017-12-11T11:27:06.790Z,97695.77
2017-12-11T11:29:34.378Z,97687.39
2017-12-11T11:32:01.875Z,97670.35
2017-12-11T11:34:29.415Z,97659.89
2017-12-11T11:36:56.952Z,97664.76
2017-12-11T11:39:24.463Z,97671.98
2017-12-11T11:41:52.142Z,97660.08
2017-12-11T11:44:19.631Z,97636.24
2017-12-11T11:46:47.108Z,97641.62
2017-12-11T11:49:14.632Z,97636.21
2017-12-11T11:51:42.120Z,97638.08
2017-12-11T11:54:10.620Z,97638.91
2017-12-11T11:56:38.200Z,97644.46
2017-12-11T11:59:05.686Z,97636.59
2017-12-11T12:01:33.170Z,97634.95
2017-12-11T12:04:00.696Z,97619.27
2017-12-11T12:06:28.283Z,97608.95
2017-12-11T12:08:55.778Z,97602.23
2017-12-11T12:11:23.278Z,97595.61
2017-12-11T12:13:50.921Z,97586.45
2017-12-11T12:16:18.419Z,97577.32
2017-12-11T12:18:45.951Z,97569.25
2017-12-11T12:21:13.620Z,97553.51
2017-12-11T12:23:41.363Z,97553.36
2017-12-11T12:26:08.860Z,97548.13
2017-12-11T12:28:36.373Z,97560.50
2017-12-11T12:31:03.872Z,97554.87
2017-12-11T12:33:31.428Z,97554.09
2017-12-11T12:35:58.939Z,97543.70
2017-12-11T12:38:26.434Z,97537.94
2017-12-11T12:40:53.931Z,97535.60
2017-12-11T12:43:21.471Z,97531.36
2017-12-11T12:45:48.988Z,97524.66
2017-12-11T12:48:16.490Z,97520.12
2017-12-11T12:50:44.016Z,97515.77
2017-12-11T12:53:12.482Z,97517.61
2017-12-11T12:55:40.094Z,97514.69
2017-12-11T12:58:07.609Z,97506.34
2017-12-11T13:00:35.153Z,97504.68
2017-12-11T13:03:02.651Z,97500.09
2017-12-11T13:05:30.175Z,97501.66
2017-12-11T13:07:57.674Z,97505.03
2017-12-11T13:10:25.211Z,97485.81
2017-12-11T13:12:53.042Z,97484.91
2017-12-11T13:15:20.553Z,97488.62
2017-12-11T13:17:48.076Z,97487.33
2017-12-11T13:20:15.569Z,97488.15
2017-12-11T13:22:43.115Z,97487.64
2017-12-11T13:25:11.239Z,97479.91
2017-12-11T13:27:38.729Z,97474.53
2017-12-11T13:30:06.439Z,97480.59
2017-12-11T13:32:33.936Z,97474.31
2017-12-11T13:35:01.444Z,97473.84
2017-12-11T13:37:28.955Z,97466.70
2017-12-11T13:39:56.472Z,97463.55
2017-12-11T13:42:23.978Z,97457.83
2017-12-11T13:44:51.460Z,97460.09
2017-12-11T13:47:19.273Z,97463.27
2017-12-11T13:49:46.994Z,97463.62
2017-12-11T13:52:14.564Z,97457.73
2017-12-11T13:54:42.081Z,97443.07
2017-12-11T13:57:09.584Z,97436.23
2017-12-11T13:59:37.109Z,97430.45
2017-12-11T14:02:04.601Z,97424.54
2017-12-11T14:04:32.411Z,97414.91
2017-12-11T14:06:59.912Z,97402.22
2017-12-11T14:09:27.441Z,97406.31
2017-12-11T14:11:54.980Z,97407.50
2017-12-11T14:14:22.473Z,97413.80
2017-12-11T14:16:50.005Z,97414.10
2017-12-11T14:19:17.520Z,97416.72
2017-12-11T14:21:45.035Z,97424.52
2017-12-11T14:24:12.800Z,97419.44
2017-12-11T14:26:40.335Z,97421.42
2017-12-11T14:29:07.878Z,97442.92
2017-12-11T14:31:35.365Z,97441.70
2017-12-11T14:34:02.921Z,97435.50
2017-12-11T14:36:31.477Z,97429.55
2017-12-11T14:38:58.975Z,97421.96
2017-12-11T14:41:26.468Z,97434.96
2017-12-11T14:43:53.944Z,97433.63
2017-12-11T14:46:21.441Z,97448.67
2017-12-11T14:48:48.995Z,97448.61
2017-12-11T14:51:16.510Z,97445.95
2017-12-11T14:53:44.021Z,97440.88
2017-12-11T14:56:11.525Z,97440.55
2017-12-11T14:58:39.033Z,97444.28
2017-12-11T15:01:06.530Z,97434.92
2017-12-11T15:03:34.072Z,97432.61
2017-12-11T15:06:01.589Z,97444.34
2017-12-11T15:08:29.110Z,97455.41
2017-12-11T15:10:56.629Z,97435.20
2017-12-11T15:13:24.187Z,97433.39
2017-12-11T15:15:51.728Z,97418.31
2017-12-11T15:18:19.235Z,97419.88
2017-12-11T15:20:46.764Z,97420.80
2017-12-11T15:23:14.329Z,97432.40
2017-12-11T15:25:41.859Z,97431.21
2017-12-11T15:28:09.392Z,97431.28
2017-12-11T15:30:36.913Z,97439.58
2017-12-11T15:33:04.755Z,97449.66
2017-12-11T15:35:32.259Z,97455.21
2017-12-11T15:37:59.776Z,97463.48
2017-12-11T15:40:27.305Z,97463.52
2017-12-11T15:42:54.812Z,97471.14
2017-12-11T15:45:22.323Z,97480.36
2017-12-11T15:47:50.058Z,97473.59
2017-12-11T15:50:17.592Z,97461.00
2017-12-11T15:52:45.099Z,97458.41
2017-12-11T15:55:12.624Z,97436.00
2017-12-11T15:57:40.142Z,97427.22
2017-12-11T16:00:07.657Z,97434.78
2017-12-11T16:02:35.228Z,97441.59
2017-12-11T16:05:02.741Z,97413.44
2017-12-11T16:07:30.259Z,97395.06
2017-12-11T16:09:57.761Z,97412.31
2017-12-11T16:12:25.288Z,97418.58
2017-12-11T16:14:53.023Z,97411.91
2017-12-11T16:17:20.537Z,97411.98
2017-12-11T16:19:48.036Z,97402.80
2017-12-11T16:22:15.591Z,97393.09
2017-12-11T16:24:43.089Z,97375.94
2017-12-11T16:27:10.626Z,97362.86
2017-12-11T16:29:38.135Z,97336.45
2017-12-11T16:32:05.642Z,97306.16
2017-12-11T16:34:33.168Z,97286.00
2017-12-11T16:37:00.672Z,97263.18
2017-12-11T16:39:28.189Z,97270.25
2017-12-11T16:41:55.700Z,97308.78
2017-12-11T16:44:23.233Z,97311.52
2017-12-11T16:46:50.853Z,97305.55
2017-12-11T16:49:18.355Z,97314.73
2017-12-11T16:51:45.872Z,97320.11
2017-12-11T16:54:13.389Z,97285.82
2017-12-11T16:56:40.911Z,97236.77
2017-12-11T16:59:08.416Z,97200.75
2017-12-11T17:01:36.948Z,97176.31
2017-12-11T17:04:04.491Z,97172.73
2017-12-11T17:06:32.001Z,97164.46
2017-12-11T17:08:59.505Z,97178.73
2017-12-11T17:11:27.013Z,97188.59
2017-12-11T17:13:54.521Z,97205.66
2017-12-11T17:16:22.019Z,97212.19
2017-12-11T17:18:49.523Z,97194.34
2017-12-11T17:21:17.059Z,97204.70
2017-12-11T17:23:44.566Z,97252.77
2017-12-11T17:26:12.065Z,97274.94
2017-12-11T17:28:39.561Z,97277.94
2017-12-11T17:31:07.063Z,97285.39
2017-12-11T17:33:34.926Z,97297.55
2017-12-11T17:36:02.556Z,97300.56
2017-12-11T17:38:30.071Z,97288.77
2017-12-11T17:40:57.575Z,97274.28
2017-12-11T17:43:25.088Z,97265.33
2017-12-11T17:45:52.581Z,97252.64
2017-12-11T17:48:20.110Z,97256.14
2017-12-11T17:50:47.607Z,97247.72
2017-12-11T17:53:15.104Z,97257.72
2017-12-11T17:55:42.597Z,97262.19
2017-12-11T17:58:10.109Z,97263.56
2017-12-11T18:00:37.613Z,97256.45
2017-12-11T18:03:05.147Z,97262.84
2017-12-11T18:05:32.662Z,97270.19
2017-12-11T18:08:00.154Z,97260.50
2017-12-11T18:10:27.657Z,97255.42
2017-12-11T18:12:55.189Z,97269.84
2017-12-11T18:15:22.736Z,97252.68
2017-12-11T18:17:50.276Z,97236.05
2017-12-11T18:20:17.857Z,97241.45
2017-12-11T18:22:45.357Z,97237.49
2017-12-11T18:25:12.857Z,97242.33
2017-12-11T18:27:40.352Z,97229.98
2017-12-11T18:30:07.879Z,97231.56
2017-12-11T18:32:36.019Z,97265.00
2017-12-11T18:35:03.542Z,97277.95
2017-12-11T18:37:31.053Z,97293.37
2017-12-11T18:39:58.614Z,97305.21
2017-12-11T18:42:26.110Z,97314.99
2017-12-11T18:44:53.605Z,97312.19
2017-12-11T18:47:21.123Z,97318.71
2017-12-11T18:49:48.616Z,97308.27
2017-12-11T18:52:16.119Z,97319.48
2017-12-11T18:54:43.601Z,97308.17
2017-12-11T18:57:11.123Z,97297.13
2017-12-11T18:59:38.677Z,97293.98
2017-12-11T19:02:06.204Z,97293.77
2017-12-11T19:04:33.692Z,97295.98
2017-12-11T19:07:01.183Z,97297.70
2017-12-11T19:09:28.701Z,97299.95
2017-12-11T19:11:56.348Z,97288.06
2017-12-11T19:14:23.842Z,97289.36
2017-12-11T19:16:51.332Z,97298.52
2017-12-11T19:19:18.852Z,97317.83
2017-12-11T19:21:46.359Z,97314.80
2017-12-11T19:24:13.880Z,97314.70
2017-12-11T19:26:41.384Z,97327.66
2017-12-11T19:29:08.905Z,97321.11
2017-12-11T19:31:36.564Z,97313.73
2017-12-11T19:34:04.075Z,97307.77
2017-12-11T19:36:31.592Z,97307.59
2017-12-11T19:38:59.131Z,97325.03
2017-12-11T19:41:26.626Z,97332.93
2017-12-11T19:43:54.131Z,97325.62
2017-12-11T19:46:21.621Z,97327.92
2017-12-11T19:48:49.120Z,97329.84
2017-12-11T19:51:16.646Z,97339.38
2017-12-11T19:53:44.156Z,97333.87
2017-12-11T19:56:11.648Z,97326.01
2017-12-11T19:58:39.204Z,97332.23
2017-12-11T20:01:06.735Z,97333.76
2017-12-11T20:03:34.239Z,97339.17
2017-12-11T20:06:01.745Z,97340.44
2017-12-11T20:08:29.232Z,97340.37
2017-12-11T20:10:56.755Z,97343.97
2017-12-11T20:13:24.277Z,97335.48
2017-12-11T20:15:51.792Z,97331.75
2017-12-11T20:18:19.381Z,97338.34
2017-12-11T20:20:46.928Z,97335.70
2017-12-11T20:23:14.573Z,97333.91
2017-12-11T20:25:42.243Z,97331.98
2017-12-11T20:28:09.740Z,97340.93
2017-12-11T20:30:37.248Z,97326.88
2017-12-11T20:33:04.732Z,97333.06
2017-12-11T20:35:32.272Z,97334.83
2017-12-11T20:37:59.805Z,97336.05
2017-12-11T20:40:27.305Z,97335.23
2017-12-11T20:42:54.905Z,97344.95
2017-12-11T20:45:22.427Z,97332.70
2017-12-11T20:47:49.950Z,97321.95
2017-12-11T20:50:17.451Z,97321.09
2017-12-11T20:52:45.072Z,97335.16
2017-12-11T20:55:12.574Z,97342.14
2017-12-11T20:57:40.109Z,97349.05
2017-12-11T21:00:07.623Z,97347.20
2017-12-11T21:02:35.261Z,97361.47
2017-12-11T21:05:02.846Z,97353.01
2017-12-11T21:07:30.363Z,97352.03
2017-12-11T21:09:57.896Z,97349.30
2017-12-11T21:12:25.438Z,97358.82
2017-12-11T21:14:52.962Z,97362.32
2017-12-11T21:17:20.502Z,97364.09
2017-12-11T21:19:48.091Z,97366.98
2017-12-11T21:22:15.613Z,97377.91
2017-12-11T21:24:44.076Z,97371.56
2017-12-11T21:27:11.616Z,97372.05
2017-12-11T21:29:39.225Z,97366.98
2017-12-11T21:32:06.905Z,97389.80
2017-12-11T21:34:34.403Z,97399.91
2017-12-11T21:37:01.928Z,97391.61
2017-12-11T21:39:29.446Z,97384.45
2017-12-11T21:41:56.966Z,97389.89
2017-12-11T21:44:26.381Z,97386.73
2017-12-11T21:46:53.896Z,97376.14
2017-12-11T21:49:21.411Z,97392.78
2017-12-11T21:51:48.925Z,97405.00
2017-12-11T21:54:16.428Z,97401.27
2017-12-11T21:56:43.912Z,97389.75
2017-12-11T21:59:11.431Z,97390.75
2017-12-11T22:01:38.980Z,97391.16
2017-12-11T22:04:07.294Z,97398.89
2017-12-11T22:06:34.784Z,97401.66
2017-12-11T22:09:02.287Z,97396.64
2017-12-11T22:11:30.278Z,97384.23
2017-12-11T22:13:58.333Z,97379.54
2017-12-11T22:16:25.859Z,97385.66
2017-12-11T22:18:53.364Z,97391.95
2017-12-11T22:21:20.890Z,97385.74
2017-12-11T22:23:48.672Z,97378.45
2017-12-11T22:26:16.237Z,97380.44
2017-12-11T22:28:43.740Z,97383.06
2017-12-11T22:31:11.239Z,97389.34
2017-12-11T22:33:38.735Z,97400.34
2017-12-11T22:36:06.314Z,97407.92
2017-12-11T22:38:33.802Z,97414.39
2017-12-11T22:41:01.322Z,97420.86
2017-12-11T22:43:28.878Z,97420.21
2017-12-11T22:45:56.438Z,97419.86
2017-12-11T22:48:23.954Z,97424.66
2017-12-11T22:50:51.455Z,97422.75
2017-12-11T22:53:19.035Z,97424.63
2017-12-11T22:55:46.557Z,97429.92
2017-12-11T22:58:14.038Z,97425.63
2017-12-11T23:00:41.599Z,97432.92
2017-12-11T23:03:09.109Z,97438.10
2017-12-11T23:05:36.592Z,97441.47
2017-12-11T23:08:04.071Z,97441.72
2017-12-11T23:10:31.558Z,97444.56
2017-12-11T23:12:59.150Z,97444.98
2017-12-11T23:15:26.710Z,97432.56
2017-12-11T23:17:54.203Z,97439.61
2017-12-11T23:20:21.697Z,97451.27
2017-12-11T23:22:49.222Z,97430.00
2017-12-11T23:25:16.705Z,97434.30
2017-12-11T23:27:44.189Z,97438.16
2017-12-11T23:30:12.137Z,97438.67
2017-12-11T23:32:39.664Z,97424.78
2017-12-11T23:35:07.200Z,97428.11
2017-12-11T23:37:34.781Z,97424.17
2017-12-11T23:40:02.289Z,97426.45
2017-12-11T23:42:29.809Z,97422.03
2017-12-11T23:44:57.423Z,97435.55
2017-12-11T23:47:24.941Z,97435.16
2017-12-11T23:49:52.574Z,97425.57
2017-12-11T23:52:20.180Z,97443.33
2017-12-11T23:54:47.727Z,97437.45
2017-12-11T23:57:15.205Z,97423.73
2017-12-11T23:59:42.725Z,97437.38
